createdAt,value
2022-08-08T00:00:53.524Z,5.00
2022-08-08T00:06:03.410Z,4.90
2022-08-08T00:08:37.112Z,5.80
2022-08-08T00:11:47.070Z,5.30
2022-08-08T00:14:58.711Z,5.50
2022-08-08T00:18:03.465Z,5.20
2022-08-08T00:20:54.915Z,4.80
2022-08-08T00:23:47.671Z,5.40
2022-08-08T00:26:30.717Z,5.00
2022-08-08T00:29:46.039Z,5.30
2022-08-08T00:32:35.132Z,5.20
2022-08-08T00:35:34.456Z,4.70
2022-08-08T00:38:07.621Z,5.00
2022-08-08T00:41:54.613Z,5.30
2022-08-08T00:44:42.115Z,5.20
2022-08-08T00:47:36.961Z,5.20
2022-08-08T00:50:53.359Z,4.70
2022-08-08T00:53:43.678Z,4.80
2022-08-08T00:57:00.840Z,4.80
2022-08-08T01:00:06.882Z,5.20
2022-08-08T01:03:59.823Z,4.70
2022-08-08T01:06:05.284Z,5.10
2022-08-08T01:09:34.861Z,4.90
2022-08-08T01:12:13.031Z,4.60
2022-08-08T01:15:43.762Z,4.40
2022-08-08T01:18:51.005Z,5.10
2022-08-08T01:22:03.823Z,4.60
2022-08-08T01:24:50.792Z,4.50
2022-08-08T01:27:44.877Z,4.80
2022-08-08T01:30:53.428Z,4.50
2022-08-08T01:33:53.978Z,5.10
2022-08-08T01:39:34.843Z,4.70
2022-08-08T01:42:36.787Z,5.30
2022-08-08T01:45:50.440Z,4.70
2022-08-08T01:48:31.414Z,4.60
2022-08-08T01:52:02.729Z,4.80
2022-08-08T01:55:19.406Z,4.50
2022-08-08T01:58:11.329Z,4.60
2022-08-08T02:00:57.531Z,4.20
2022-08-08T02:03:57.661Z,5.10
2022-08-08T02:06:46.592Z,4.40
2022-08-08T02:10:01.373Z,4.20
2022-08-08T02:13:01.127Z,4.60
2022-08-08T02:15:39.036Z,4.70
2022-08-08T02:18:59.608Z,4.80
2022-08-08T02:21:54.410Z,5.80
2022-08-08T02:24:32.311Z,4.60
2022-08-08T02:27:07.651Z,4.50
2022-08-08T02:30:03.398Z,4.60
2022-08-08T02:32:47.588Z,4.40
2022-08-08T02:36:05.160Z,4.70
2022-08-08T02:38:49.166Z,5.00
2022-08-08T02:41:59.329Z,4.00
2022-08-08T02:44:56.322Z,4.90
2022-08-08T02:48:16.296Z,4.80
2022-08-08T02:50:59.358Z,4.40
2022-08-08T02:53:56.830Z,4.60
2022-08-08T02:56:45.723Z,4.60
2022-08-08T02:59:37.339Z,4.70
2022-08-08T03:02:54.823Z,4.30
2022-08-08T03:05:51.417Z,4.40
2022-08-08T03:08:51.719Z,4.30
2022-08-08T03:16:02.087Z,4.00
2022-08-08T03:18:07.792Z,4.30
2022-08-08T03:20:47.096Z,4.00
2022-08-08T03:23:23.695Z,3.30
2022-08-08T03:25:52.247Z,3.60
2022-08-08T03:28:34.174Z,4.40
2022-08-08T03:31:25.026Z,3.80
2022-08-08T03:34:00.676Z,3.50
2022-08-08T03:36:30.539Z,3.40
2022-08-08T03:39:07.588Z,3.20
2022-08-08T03:42:27.103Z,3.70
2022-08-08T03:44:34.844Z,3.60
2022-08-08T03:47:14.177Z,3.40
2022-08-08T03:49:59.940Z,3.60
2022-08-08T03:52:32.508Z,3.50
2022-08-08T03:55:10.642Z,3.10
2022-08-08T04:01:01.374Z,3.60
2022-08-08T04:03:58.275Z,4.10
2022-08-08T04:08:56.393Z,4.00
2022-08-08T04:11:25.477Z,3.80
2022-08-08T04:14:33.074Z,3.50
2022-08-08T04:16:41.559Z,3.60
2022-08-08T04:19:23.405Z,4.30
2022-08-08T04:21:51.713Z,3.50
2022-08-08T04:24:28.903Z,3.80
2022-08-08T04:26:58.760Z,3.50
2022-08-08T04:29:36.585Z,3.50
2022-08-08T04:32:07.539Z,3.30
2022-08-08T04:34:49.244Z,3.20
2022-08-08T04:37:31.936Z,2.90
2022-08-08T04:40:05.315Z,3.60
2022-08-08T04:42:37.329Z,3.20
2022-08-08T04:45:14.128Z,2.80
2022-08-08T04:47:46.218Z,2.80
2022-08-08T04:50:25.427Z,3.00
2022-08-08T04:53:01.123Z,3.00
2022-08-08T04:55:47.378Z,2.90
2022-08-08T04:58:20.631Z,3.20
2022-08-08T05:00:51.729Z,3.10
2022-08-08T05:04:09.917Z,3.20
2022-08-08T05:06:12.908Z,3.30
2022-08-08T05:08:51.703Z,3.00
2022-08-08T05:11:26.015Z,3.00
2022-08-08T05:14:01.297Z,3.50
2022-08-08T05:16:53.441Z,3.70
2022-08-08T05:20:12.631Z,3.70
2022-08-08T05:22:08.778Z,3.00
2022-08-08T05:24:39.222Z,3.30
2022-08-08T05:27:08.290Z,3.30
2022-08-08T05:29:37.525Z,2.70
2022-08-08T05:32:09.632Z,3.10
2022-08-08T05:34:49.239Z,3.10
2022-08-08T05:37:23.495Z,3.20
2022-08-08T05:40:09.403Z,3.30
2022-08-08T05:42:42.942Z,2.50
2022-08-08T05:45:25.372Z,3.00
2022-08-08T05:48:08.340Z,3.40
2022-08-08T05:50:38.654Z,3.10
2022-08-08T05:53:54.695Z,2.80
2022-08-08T05:56:10.581Z,3.50
2022-08-08T05:58:53.831Z,3.30
2022-08-08T06:01:56.105Z,2.60
2022-08-08T06:04:22.759Z,3.00
2022-08-08T06:06:53.083Z,2.90
2022-08-08T06:09:58.071Z,3.50
2022-08-08T06:12:18.767Z,3.10
2022-08-08T06:15:01.078Z,3.00
2022-08-08T06:17:51.167Z,3.40
2022-08-08T06:20:25.863Z,3.40
2022-08-08T06:22:56.461Z,3.10
2022-08-08T06:26:36.262Z,2.70
2022-08-08T06:28:29.781Z,2.70
2022-08-08T06:31:04.789Z,2.60
2022-08-08T06:34:27.569Z,2.70
2022-08-08T06:36:53.894Z,2.70
2022-08-08T06:39:24.687Z,2.50
2022-08-08T06:41:57.012Z,2.50
2022-08-08T06:44:27.413Z,1.60
2022-08-08T06:46:59.336Z,1.90
2022-08-08T06:49:56.627Z,2.20
2022-08-08T06:52:16.268Z,1.90
2022-08-08T06:54:44.868Z,3.00
2022-08-08T06:57:16.496Z,2.20
2022-08-08T07:00:10.278Z,2.00
2022-08-08T07:02:35.460Z,1.50
2022-08-08T07:05:20.671Z,2.10
2022-08-08T07:07:52.167Z,2.00
2022-08-08T07:10:23.920Z,2.20
2022-08-08T07:13:08.485Z,2.40
2022-08-08T07:16:07.108Z,1.70
2022-08-08T07:18:50.750Z,1.60
2022-08-08T07:21:31.113Z,1.60
2022-08-08T07:24:05.679Z,1.50
2022-08-08T07:26:43.852Z,1.40
2022-08-08T07:29:58.879Z,2.00
2022-08-08T07:32:03.497Z,1.50
2022-08-08T07:34:32.418Z,1.80
2022-08-08T07:37:11.519Z,1.90
2022-08-08T07:39:56.236Z,1.90
2022-08-08T07:42:33.494Z,1.70
2022-08-08T07:45:04.030Z,1.90
2022-08-08T07:47:38.430Z,1.80
2022-08-08T07:50:08.416Z,2.10
2022-08-08T07:52:43.924Z,1.50
2022-08-08T07:55:23.490Z,1.60
2022-08-08T07:58:24.274Z,2.00
2022-08-08T08:00:56.843Z,2.00
2022-08-08T08:04:00.039Z,2.40
2022-08-08T08:06:28.175Z,2.00
2022-08-08T08:09:13.005Z,2.20
2022-08-08T08:11:51.689Z,2.60
2022-08-08T08:14:45.207Z,1.70
2022-08-08T08:17:18.129Z,1.30
2022-08-08T08:19:50.564Z,1.60
2022-08-08T08:22:31.397Z,2.10
2022-08-08T08:25:07.423Z,1.10
2022-08-08T08:27:36.128Z,1.80
2022-08-08T08:30:05.060Z,1.20
2022-08-08T08:32:36.677Z,1.20
2022-08-08T08:35:15.113Z,1.80
2022-08-08T08:38:12.880Z,1.70
2022-08-08T08:40:32.218Z,1.40
2022-08-08T08:43:03.310Z,1.20
2022-08-08T08:45:31.827Z,1.20
2022-08-08T08:48:01.371Z,0.80
2022-08-08T08:50:35.625Z,1.50
2022-08-08T08:53:27.374Z,0.90
2022-08-08T08:56:02.884Z,1.20
2022-08-08T08:58:38.027Z,1.10
2022-08-08T09:01:10.474Z,1.00
2022-08-08T09:03:46.613Z,1.20
2022-08-08T09:06:28.475Z,1.50
2022-08-08T09:09:39.069Z,1.00
2022-08-08T09:12:20.036Z,0.90
2022-08-08T09:14:50.062Z,0.90
2022-08-08T09:17:23.690Z,1.20
2022-08-08T09:21:56.665Z,0.90
2022-08-08T09:22:58.935Z,1.20
2022-08-08T09:25:36.079Z,0.90
2022-08-08T09:28:30.769Z,1.00
2022-08-08T09:31:12.585Z,1.40
2022-08-08T09:34:14.710Z,1.00
2022-08-08T09:36:35.838Z,0.90
2022-08-08T09:39:10.166Z,1.10
2022-08-08T09:41:54.821Z,1.10
2022-08-08T09:45:04.089Z,0.80
2022-08-08T09:48:09.952Z,1.30
2022-08-08T09:50:28.303Z,0.80
2022-08-08T09:53:10.262Z,1.10
2022-08-08T09:56:05.747Z,1.30
2022-08-08T09:58:46.168Z,1.40
2022-08-08T10:01:59.071Z,1.10
2022-08-08T10:04:15.280Z,1.70
2022-08-08T10:07:07.451Z,1.60
2022-08-08T10:09:35.882Z,0.90
2022-08-08T10:12:38.392Z,0.80
2022-08-08T10:15:19.539Z,0.70
2022-08-08T10:18:07.249Z,0.70
2022-08-08T10:20:57.958Z,1.00
2022-08-08T10:23:48.134Z,0.80
2022-08-08T10:26:31.058Z,0.70
2022-08-08T10:29:21.089Z,0.70
2022-08-08T10:34:58.593Z,0.90
2022-08-08T10:37:34.753Z,2.30
2022-08-08T10:40:23.732Z,1.00
2022-08-08T10:43:04.464Z,0.70
2022-08-08T10:45:55.194Z,0.80
2022-08-08T10:48:57.154Z,1.00
2022-08-08T10:51:47.527Z,1.00
2022-08-08T10:54:27.007Z,0.70
2022-08-08T10:59:40.096Z,2.00
2022-08-08T11:02:09.477Z,0.90
2022-08-08T11:04:53.610Z,1.10
2022-08-08T11:08:30.240Z,1.30
2022-08-08T11:10:19.544Z,1.00
2022-08-08T11:15:58.836Z,0.70
2022-08-08T11:18:30.641Z,1.10
2022-08-08T11:21:10.327Z,1.10
2022-08-08T11:24:02.116Z,0.90
2022-08-08T11:26:34.511Z,1.00
2022-08-08T11:29:06.792Z,0.80
2022-08-08T11:31:50.356Z,1.10
2022-08-08T11:34:23.145Z,1.20
2022-08-08T11:36:51.258Z,0.90
2022-08-08T11:39:19.950Z,1.00
2022-08-08T11:41:48.314Z,1.40
2022-08-08T11:44:29.185Z,0.80
2022-08-08T11:46:58.317Z,1.00
2022-08-08T11:49:26.213Z,0.80
2022-08-08T11:51:55.932Z,0.80
2022-08-08T11:54:38.102Z,0.90
2022-08-08T11:57:23.677Z,0.90
2022-08-08T12:00:05.754Z,1.30
2022-08-08T12:05:18.914Z,1.30
2022-08-08T12:07:55.949Z,1.10
2022-08-08T12:10:26.867Z,0.90
2022-08-08T12:13:06.682Z,0.90
2022-08-08T12:15:42.861Z,0.80
2022-08-08T12:18:24.284Z,0.90
2022-08-08T12:20:55.231Z,0.80
2022-08-08T12:23:44.024Z,1.00
2022-08-08T12:26:27.536Z,0.60
2022-08-08T12:29:18.386Z,0.60
2022-08-08T12:31:54.336Z,0.90
2022-08-08T12:34:37.314Z,0.70
2022-08-08T12:37:11.361Z,0.90
2022-08-08T12:39:59.913Z,0.60
2022-08-08T12:42:33.704Z,1.10
2022-08-08T12:48:04.877Z,1.10
2022-08-08T12:50:46.817Z,1.00
2022-08-08T12:53:38.006Z,0.70
2022-08-08T12:56:19.563Z,0.90
2022-08-08T12:58:54.575Z,1.00
2022-08-08T13:01:36.828Z,1.00
2022-08-08T13:04:24.508Z,1.10
2022-08-08T13:07:11.785Z,0.90
2022-08-08T13:10:04.266Z,0.80
2022-08-08T13:12:36.309Z,0.90
2022-08-08T13:15:09.523Z,1.00
2022-08-08T13:17:54.337Z,0.90
2022-08-08T13:20:26.076Z,1.10
2022-08-08T13:23:30.293Z,0.90
2022-08-08T13:25:44.242Z,1.00
2022-08-08T13:28:17.627Z,1.10
2022-08-08T13:30:45.386Z,0.90
2022-08-08T13:33:18.475Z,0.90
2022-08-08T13:35:50.705Z,1.00
2022-08-08T13:38:18.500Z,0.90
2022-08-08T13:40:45.887Z,1.00
2022-08-08T13:43:16.791Z,0.90
2022-08-08T13:45:47.125Z,0.90
2022-08-08T13:48:19.590Z,0.80
2022-08-08T13:50:56.860Z,0.70
2022-08-08T13:53:31.421Z,0.90
2022-08-08T13:56:05.407Z,1.20
2022-08-08T13:58:34.777Z,0.90
2022-08-08T14:01:32.885Z,0.80
2022-08-08T14:04:24.489Z,1.30
2022-08-08T14:07:04.202Z,0.90
2022-08-08T14:10:05.409Z,1.20
2022-08-08T14:12:29.666Z,1.20
2022-08-08T14:14:56.885Z,1.10
2022-08-08T14:17:57.609Z,1.20
2022-08-08T14:20:15.484Z,0.90
2022-08-08T14:23:10.458Z,1.90
2022-08-08T14:26:11.007Z,0.90
2022-08-08T14:28:40.228Z,0.80
2022-08-08T14:31:10.413Z,1.10
2022-08-08T14:33:37.643Z,1.20
2022-08-08T14:36:09.415Z,1.50
2022-08-08T14:38:52.035Z,1.60
2022-08-08T14:41:45.487Z,1.10
2022-08-08T14:44:11.086Z,1.30
2022-08-08T14:46:39.960Z,0.80
2022-08-08T14:49:20.581Z,1.00
2022-08-08T14:52:08.664Z,1.10
2022-08-08T14:54:48.934Z,1.10
2022-08-08T14:57:16.662Z,1.00
2022-08-08T14:59:51.300Z,1.40
2022-08-08T15:02:25.350Z,0.90
2022-08-08T15:04:57.656Z,2.00
2022-08-08T15:07:40.423Z,1.20
2022-08-08T15:10:10.021Z,1.40
2022-08-08T15:12:38.356Z,1.20
2022-08-08T15:15:09.385Z,1.20
2022-08-08T15:17:46.964Z,1.10
2022-08-08T15:20:17.193Z,0.90
2022-08-08T15:22:45.866Z,1.20
2022-08-08T15:25:17.785Z,1.10
2022-08-08T15:28:04.422Z,1.30
2022-08-08T15:30:43.585Z,1.30
2022-08-08T15:33:20.727Z,1.30
2022-08-08T15:35:48.140Z,1.40
2022-08-08T15:38:17.403Z,0.90
2022-08-08T15:40:46.101Z,0.80
2022-08-08T15:43:18.699Z,1.40
2022-08-08T15:46:04.807Z,1.20
2022-08-08T15:48:31.648Z,1.10
2022-08-08T15:51:02.911Z,1.20
2022-08-08T15:53:33.341Z,1.40
2022-08-08T15:56:12.330Z,1.50
2022-08-08T15:58:48.233Z,1.50
2022-08-08T16:01:16.552Z,1.30
2022-08-08T16:03:46.024Z,1.20
2022-08-08T16:06:28.563Z,1.20
2022-08-08T16:13:00.831Z,1.40
2022-08-08T16:13:14.477Z,1.20
2022-08-08T16:14:34.787Z,1.50
2022-08-08T16:17:05.677Z,1.80
2022-08-08T16:19:57.238Z,1.20
2022-08-08T16:22:30.485Z,1.50
2022-08-08T16:24:58.514Z,1.50
2022-08-08T16:27:25.627Z,1.60
2022-08-08T16:30:13.315Z,1.40
2022-08-08T16:32:41.255Z,1.30
2022-08-08T16:35:08.607Z,1.20
2022-08-08T16:37:35.501Z,1.70
2022-08-08T16:40:04.307Z,1.70
2022-08-08T16:42:31.891Z,1.30
2022-08-08T16:45:11.379Z,1.30
2022-08-08T16:47:54.253Z,1.00
2022-08-08T16:50:21.675Z,1.70
2022-08-08T16:55:20.749Z,1.20
2022-08-08T16:55:55.472Z,1.00
2022-08-08T16:58:26.715Z,1.40
2022-08-08T17:00:55.072Z,1.60
2022-08-08T17:03:25.174Z,1.60
2022-08-08T17:06:37.099Z,1.90
2022-08-08T17:08:57.695Z,1.50
2022-08-08T17:11:28.490Z,1.30
2022-08-08T17:14:18.162Z,1.40
2022-08-08T17:16:57.163Z,1.60
2022-08-08T17:19:27.527Z,1.60
2022-08-08T17:21:56.956Z,1.70
2022-08-08T17:24:28.221Z,2.10
2022-08-08T17:26:58.599Z,1.70
2022-08-08T17:29:27.493Z,1.40
2022-08-08T17:31:57.548Z,1.30
2022-08-08T17:34:36.106Z,1.60
2022-08-08T17:37:09.307Z,1.50
2022-08-08T17:40:05.173Z,1.80
2022-08-08T17:42:26.912Z,1.50
2022-08-08T17:44:54.221Z,1.80
2022-08-08T17:47:27.855Z,2.20
2022-08-08T17:50:00.954Z,1.80
2022-08-08T17:52:34.102Z,2.00
2022-08-08T17:55:05.739Z,1.90
2022-08-08T17:57:49.850Z,1.60
2022-08-08T18:00:19.694Z,1.90
2022-08-08T18:03:08.656Z,1.50
2022-08-08T18:05:48.265Z,1.70
2022-08-08T18:08:37.573Z,1.70
2022-08-08T18:11:17.318Z,1.60
2022-08-08T18:13:47.901Z,1.70
2022-08-08T18:16:16.867Z,2.50
2022-08-08T18:18:52.501Z,1.90
2022-08-08T18:21:35.385Z,1.70
2022-08-08T18:24:17.389Z,1.40
2022-08-08T18:29:25.793Z,1.60
2022-08-08T18:31:59.058Z,2.70
2022-08-08T18:34:27.662Z,2.20
2022-08-08T18:36:55.874Z,2.00
2022-08-08T18:39:27.882Z,2.20
2022-08-08T18:42:03.097Z,1.70
2022-08-08T18:44:34.563Z,2.00
2022-08-08T18:47:02.219Z,1.80
2022-08-08T18:49:41.028Z,1.90
2022-08-08T18:52:22.596Z,1.80
2022-08-08T18:55:00.543Z,1.70
2022-08-08T18:57:42.105Z,2.00
2022-08-08T19:00:21.020Z,1.90
2022-08-08T19:02:55.713Z,2.40
2022-08-08T19:05:32.054Z,2.00
2022-08-08T19:08:24.472Z,1.90
2022-08-08T19:11:01.655Z,2.00
2022-08-08T19:13:53.447Z,1.90
2022-08-08T19:16:19.001Z,2.10
2022-08-08T19:18:53.281Z,1.80
2022-08-08T19:21:32.886Z,2.10
2022-08-08T19:24:05.721Z,2.10
2022-08-08T19:26:37.908Z,2.30
2022-08-08T19:29:06.145Z,1.90
2022-08-08T19:31:35.929Z,2.00
2022-08-08T19:34:35.838Z,2.00
2022-08-08T19:36:58.533Z,1.80
2022-08-08T19:39:30.746Z,1.60
2022-08-08T19:42:06.838Z,2.20
2022-08-08T19:44:45.346Z,1.80
2022-08-08T19:47:14.204Z,2.40
2022-08-08T19:49:43.464Z,2.10
2022-08-08T19:52:35.418Z,2.20
2022-08-08T19:55:08.979Z,2.20
2022-08-08T19:57:38.082Z,2.00
2022-08-08T20:00:11.227Z,1.70
2022-08-08T20:02:55.555Z,2.30
2022-08-08T20:06:13.696Z,1.70
2022-08-08T20:08:30.476Z,2.40
2022-08-08T20:10:57.175Z,2.00
2022-08-08T20:14:12.536Z,2.00
2022-08-08T20:16:11.387Z,2.70
2022-08-08T20:18:52.822Z,1.90
2022-08-08T20:21:25.324Z,1.80
2022-08-08T20:23:57.702Z,3.10
2022-08-08T20:26:27.482Z,2.10
2022-08-08T20:28:56.767Z,2.00
2022-08-08T20:31:24.483Z,2.80
2022-08-08T20:34:28.795Z,1.90
2022-08-08T20:37:03.387Z,2.00
2022-08-08T20:39:39.754Z,2.50
2022-08-08T20:42:09.307Z,1.90
2022-08-08T20:44:37.552Z,2.20
2022-08-08T20:47:15.783Z,2.40
2022-08-08T20:49:50.968Z,2.30
2022-08-08T20:52:24.767Z,1.60
2022-08-08T20:54:52.369Z,2.20
2022-08-08T20:57:21.120Z,1.70
2022-08-08T20:59:49.655Z,2.10
2022-08-08T21:02:25.249Z,2.10
2022-08-08T21:05:00.893Z,2.10
2022-08-08T21:07:47.211Z,2.20
2022-08-08T21:10:20.815Z,2.50
2022-08-08T21:12:54.411Z,2.50
2022-08-08T21:16:05.752Z,1.90
2022-08-08T21:18:09.010Z,2.30
2022-08-08T21:20:35.808Z,1.90
2022-08-08T21:23:08.962Z,2.20
2022-08-08T21:25:36.903Z,2.30
2022-08-08T21:28:14.874Z,1.80
2022-08-08T21:30:42.774Z,2.30
2022-08-08T21:33:17.059Z,1.90
2022-08-08T21:36:16.452Z,1.90
2022-08-08T21:38:31.143Z,1.60
2022-08-08T21:40:58.288Z,1.90
2022-08-08T21:43:34.884Z,2.00
2022-08-08T21:48:04.939Z,1.80
2022-08-08T21:48:53.852Z,1.80
2022-08-08T21:54:17.077Z,1.90
2022-08-08T21:54:36.544Z,1.90
2022-08-08T21:57:07.406Z,1.80
2022-08-08T22:00:01.663Z,1.70
2022-08-08T22:02:25.089Z,1.60
2022-08-08T22:04:56.068Z,1.50
2022-08-08T22:07:40.043Z,2.10
2022-08-08T22:10:18.697Z,1.80
2022-08-08T22:13:17.947Z,2.00
2022-08-08T22:15:58.828Z,2.10
2022-08-08T22:18:33.043Z,2.20
2022-08-08T22:21:14.342Z,2.00
2022-08-08T22:23:49.484Z,1.60
2022-08-08T22:26:28.014Z,2.10
2022-08-08T22:29:14.756Z,1.80
2022-08-08T22:31:58.255Z,2.10
2022-08-08T22:34:31.098Z,1.90
2022-08-08T22:36:58.094Z,2.10
2022-08-08T22:39:39.205Z,1.80
2022-08-08T22:42:14.584Z,2.10
2022-08-08T22:44:54.438Z,1.50
2022-08-08T22:47:21.481Z,1.70
2022-08-08T22:49:53.989Z,1.90
2022-08-08T22:52:33.398Z,1.80
2022-08-08T22:55:05.489Z,2.20
2022-08-08T22:57:44.004Z,1.60
2022-08-08T23:00:13.564Z,1.90
2022-08-08T23:02:44.629Z,1.70
2022-08-08T23:05:17.445Z,2.30
2022-08-08T23:07:57.153Z,1.70
2022-08-08T23:10:27.079Z,2.20
2022-08-08T23:12:56.136Z,1.50
2022-08-08T23:16:38.056Z,1.70
2022-08-08T23:18:12.477Z,1.90
2022-08-08T23:20:43.462Z,1.80
2022-08-08T23:23:12.402Z,1.60
2022-08-08T23:25:48.025Z,1.80
2022-08-08T23:28:18.179Z,1.60
2022-08-08T23:30:47.599Z,2.00
2022-08-08T23:33:21.079Z,1.70
2022-08-08T23:36:07.753Z,2.10
2022-08-08T23:38:44.086Z,1.90
2022-08-08T23:41:24.599Z,2.30
2022-08-08T23:43:54.403Z,2.10
2022-08-08T23:49:08.144Z,1.80
2022-08-08T23:49:14.680Z,2.20
2022-08-08T23:52:04.515Z,2.10
2022-08-08T23:54:53.146Z,1.80
2022-08-08T23:57:26.540Z,2.20
